Austin Straubel International Airport
KGRB : now visible

Airfield :











YOU CAN JOIN US ON...

 
LOGIN :

Register | Disclaimer

   EN    FR    IT 

 









Legend :    VFR   Marginal VFR   IFR   Intensive IFR   Very Intensive IFR
Visi :
Ceiling :
>= 8 km
>= 3000ft
5 to 8 km
1000 to 3000 ft
1500m to 5 km
500 to 1000 ft
800 to 1500m
200 to 500 ft
< 800m
< 200 ft
Symbols :   Thunderstorms  Fog  Heavy snow  Heavy precipitations  Wind > 20 kt






- Airport Elevation : 695 ft
- IATA code : GRB


KGRB - Austin Straubel International

CURRENT METAR :
  • 191553Z 23008KT 10SM FEW085 24/17 A2993 RMK AO2 SLP133 T02390167

EXPIRED METARs :
  • 191453Z 22007KT 10SM BKN090 24/17 A2991 RMK AO2 SLP127 T02440172 51014
  • 191353Z 22005KT 10SM R36/4500VP6000FT CLR 23/17 A2990 RMK AO2 SLP121 T02330172

TAF KGRB
Valid from the 19 at 12:00 until the 20 at 12:00 UTC


191140Z 1912/2012 20006KT P6SM VCSH BKN100
FM191500 21009G15KT P6SM -SHRA SCT035 BKN080
TEMPO 1916/1918 4SM TSRA BKN030CB
FM191900 20009G16KT P6SM VCSH SCT035 BKN090
FM192300 17006KT P6SM VCSH BKN100
FM200800 18004KT 5SM -SHRA BR BKN040
KZMP FIR / North America



MET'MAP, your aeronautical weather chart ! - Copyright ORBIFLY December 2007 - Disclaimer

ORBIFLY MET'MAP TEAM :

Programming & Development : Alexandra Zaïnal
Original concept : Baudouin d'Aumeries
Technical & hardware support : Manuel Goepfert
Assistance : Marc-Olivier Méhu




SOURCES & CREDITS :

   NOAA       Earth
Advisory